sensor_id;sensor_type;location;lat;lon;timestamp;P1;durP1;ratioP1;P2;durP2;ratioP2
42702;SDS011;28341;52.064;4.920;2022-12-16T00:01:49;64.83;;;34.00;;
42702;SDS011;28341;52.064;4.920;2022-12-16T00:03:54;59.33;;;33.13;;
42702;SDS011;28341;52.064;4.920;2022-12-16T00:06:01;58.33;;;33.37;;
42702;SDS011;28341;52.064;4.920;2022-12-16T00:08:05;59.03;;;35.70;;
42702;SDS011;28341;52.064;4.920;2022-12-16T00:10:10;60.13;;;34.00;;
42702;SDS011;28341;52.064;4.920;2022-12-16T00:12:14;56.40;;;33.07;;
42702;SDS011;28341;52.064;4.920;2022-12-16T00:14:19;62.20;;;33.70;;
42702;SDS011;28341;52.064;4.920;2022-12-16T00:16:26;55.27;;;31.80;;
42702;SDS011;28341;52.064;4.920;2022-12-16T00:18:31;54.67;;;32.70;;
42702;SDS011;28341;52.064;4.920;2022-12-16T00:20:35;47.07;;;30.47;;
42702;SDS011;28341;52.064;4.920;2022-12-16T00:22:40;52.70;;;30.23;;
42702;SDS011;28341;52.064;4.920;2022-12-16T00:24:44;57.43;;;30.67;;
42702;SDS011;28341;52.064;4.920;2022-12-16T00:26:49;47.60;;;29.83;;
42702;SDS011;28341;52.064;4.920;2022-12-16T00:28:53;54.73;;;28.90;;
42702;SDS011;28341;52.064;4.920;2022-12-16T00:30:58;52.73;;;28.97;;
42702;SDS011;28341;52.064;4.920;2022-12-16T00:33:05;42.70;;;26.77;;
42702;SDS011;28341;52.064;4.920;2022-12-16T00:35:10;48.00;;;28.57;;
42702;SDS011;28341;52.064;4.920;2022-12-16T00:37:14;46.30;;;28.20;;
42702;SDS011;28341;52.064;4.920;2022-12-16T00:39:19;48.07;;;25.20;;
42702;SDS011;28341;52.064;4.920;2022-12-16T00:41:23;44.33;;;26.87;;
42702;SDS011;28341;52.064;4.920;2022-12-16T00:43:28;42.17;;;24.83;;
42702;SDS011;28341;52.064;4.920;2022-12-16T00:45:32;44.57;;;25.63;;
42702;SDS011;28341;52.064;4.920;2022-12-16T00:47:37;42.30;;;23.47;;
42702;SDS011;28341;52.064;4.920;2022-12-16T00:49:44;41.83;;;23.20;;
42702;SDS011;28341;52.064;4.920;2022-12-16T00:51:48;41.17;;;23.60;;
42702;SDS011;28341;52.064;4.920;2022-12-16T00:53:53;38.83;;;22.33;;
42702;SDS011;28341;52.064;4.920;2022-12-16T00:56:01;46.90;;;25.13;;
42702;SDS011;28341;52.064;4.920;2022-12-16T00:58:07;39.87;;;21.60;;
42702;SDS011;28341;52.064;4.920;2022-12-16T01:00:12;40.90;;;21.60;;
42702;SDS011;28341;52.064;4.920;2022-12-16T01:02:18;37.87;;;21.97;;
42702;SDS011;28341;52.064;4.920;2022-12-16T01:04:23;35.73;;;20.53;;
42702;SDS011;28341;52.064;4.920;2022-12-16T01:06:31;35.50;;;20.50;;
42702;SDS011;28341;52.064;4.920;2022-12-16T01:08:35;38.33;;;20.97;;
42702;SDS011;28341;52.064;4.920;2022-12-16T01:10:40;34.93;;;19.20;;
42702;SDS011;28341;52.064;4.920;2022-12-16T01:12:45;31.63;;;16.57;;
42702;SDS011;28341;52.064;4.920;2022-12-16T01:14:49;29.83;;;18.30;;
42702;SDS011;28341;52.064;4.920;2022-12-16T01:16:53;31.17;;;17.58;;
42702;SDS011;28341;52.064;4.920;2022-12-16T01:18:58;29.60;;;16.47;;
42702;SDS011;28341;52.064;4.920;2022-12-16T01:21:02;30.55;;;18.15;;
42702;SDS011;28341;52.064;4.920;2022-12-16T01:23:11;23.30;;;15.40;;
42702;SDS011;28341;52.064;4.920;2022-12-16T01:25:15;22.37;;;15.23;;
42702;SDS011;28341;52.064;4.920;2022-12-16T01:27:19;22.57;;;14.57;;
42702;SDS011;28341;52.064;4.920;2022-12-16T01:29:24;21.90;;;13.47;;
42702;SDS011;28341;52.064;4.920;2022-12-16T01:31:28;20.43;;;13.67;;
42702;SDS011;28341;52.064;4.920;2022-12-16T01:33:33;22.73;;;13.97;;
42702;SDS011;28341;52.064;4.920;2022-12-16T01:35:37;23.77;;;13.53;;
42702;SDS011;28341;52.064;4.920;2022-12-16T01:37:42;21.97;;;13.57;;
42702;SDS011;28341;52.064;4.920;2022-12-16T01:39:49;21.37;;;13.00;;
42702;SDS011;28341;52.064;4.920;2022-12-16T01:41:54;19.43;;;12.13;;
42702;SDS011;28341;52.064;4.920;2022-12-16T01:44:11;16.90;;;9.83;;
42702;SDS011;28341;52.064;4.920;2022-12-16T01:46:19;23.80;;;10.40;;
42702;SDS011;28341;52.064;4.920;2022-12-16T01:48:30;18.23;;;10.47;;
42702;SDS011;28341;52.064;4.920;2022-12-16T01:50:45;21.43;;;9.70;;
42702;SDS011;28341;52.064;4.920;2022-12-16T01:52:50;16.33;;;8.43;;
42702;SDS011;28341;52.064;4.920;2022-12-16T01:55:01;17.77;;;7.97;;
42702;SDS011;28341;52.064;4.920;2022-12-16T01:57:10;19.23;;;7.63;;
42702;SDS011;28341;52.064;4.920;2022-12-16T01:59:18;18.87;;;7.67;;
42702;SDS011;28341;52.064;4.920;2022-12-16T02:01:23;18.77;;;7.13;;
42702;SDS011;28341;52.064;4.920;2022-12-16T02:03:27;13.13;;;6.73;;
42702;SDS011;28341;52.064;4.920;2022-12-16T02:05:37;17.23;;;7.20;;
42702;SDS011;28341;52.064;4.920;2022-12-16T02:07:47;21.97;;;7.23;;
42702;SDS011;28341;52.064;4.920;2022-12-16T02:10:04;14.30;;;6.57;;
42702;SDS011;28341;52.064;4.920;2022-12-16T02:12:14;15.17;;;6.67;;
42702;SDS011;28341;52.064;4.920;2022-12-16T02:14:32;16.33;;;6.50;;
42702;SDS011;28341;52.064;4.920;2022-12-16T02:16:58;15.05;;;6.60;;
42702;SDS011;28341;52.064;4.920;2022-12-16T02:19:08;19.57;;;6.77;;
42702;SDS011;28341;52.064;4.920;2022-12-16T02:35:06;17.40;;;6.20;;
42702;SDS011;28341;52.064;4.920;2022-12-16T02:37:16;17.20;;;6.50;;
42702;SDS011;28341;52.064;4.920;2022-12-16T02:39:27;15.43;;;6.57;;
42702;SDS011;28341;52.064;4.920;2022-12-16T02:41:40;16.73;;;6.33;;
42702;SDS011;28341;52.064;4.920;2022-12-16T02:43:49;15.47;;;6.57;;
42702;SDS011;28341;52.064;4.920;2022-12-16T02:45:59;22.77;;;5.87;;
42702;SDS011;28341;52.064;4.920;2022-12-16T02:48:04;15.63;;;6.27;;
42702;SDS011;28341;52.064;4.920;2022-12-16T02:50:13;19.00;;;6.77;;
42702;SDS011;28341;52.064;4.920;2022-12-16T02:52:21;19.97;;;6.17;;
42702;SDS011;28341;52.064;4.920;2022-12-16T02:54:27;18.70;;;6.70;;
42702;SDS011;28341;52.064;4.920;2022-12-16T02:56:37;20.20;;;6.47;;
42702;SDS011;28341;52.064;4.920;2022-12-16T02:58:51;20.47;;;7.00;;
42702;SDS011;28341;52.064;4.920;2022-12-16T03:01:07;23.53;;;6.50;;
42702;SDS011;28341;52.064;4.920;2022-12-16T03:03:17;16.20;;;5.82;;
42702;SDS011;28341;52.064;4.920;2022-12-16T03:05:28;19.80;;;5.60;;
42702;SDS011;28341;52.064;4.920;2022-12-16T03:07:34;16.10;;;6.60;;
42702;SDS011;28341;52.064;4.920;2022-12-16T03:09:40;23.60;;;6.10;;
42702;SDS011;28341;52.064;4.920;2022-12-16T03:11:46;20.80;;;5.90;;
42702;SDS011;28341;52.064;4.920;2022-12-16T03:13:53;16.17;;;6.03;;
42702;SDS011;28341;52.064;4.920;2022-12-16T03:15:59;19.83;;;6.20;;
42702;SDS011;28341;52.064;4.920;2022-12-16T03:18:08;22.70;;;6.43;;
42702;SDS011;28341;52.064;4.920;2022-12-16T03:20:14;21.57;;;7.97;;
42702;SDS011;28341;52.064;4.920;2022-12-16T03:22:24;24.33;;;6.30;;
42702;SDS011;28341;52.064;4.920;2022-12-16T03:24:31;19.17;;;5.73;;
42702;SDS011;28341;52.064;4.920;2022-12-16T03:26:37;14.97;;;5.30;;
42702;SDS011;28341;52.064;4.920;2022-12-16T03:28:47;14.83;;;5.00;;
42702;SDS011;28341;52.064;4.920;2022-12-16T03:30:56;14.00;;;4.93;;
42702;SDS011;28341;52.064;4.920;2022-12-16T03:33:14;16.80;;;5.20;;
42702;SDS011;28341;52.064;4.920;2022-12-16T03:35:23;16.00;;;4.87;;
42702;SDS011;28341;52.064;4.920;2022-12-16T03:37:30;15.93;;;4.70;;
42702;SDS011;28341;52.064;4.920;2022-12-16T03:39:37;13.83;;;4.60;;
42702;SDS011;28341;52.064;4.920;2022-12-16T03:41:44;20.37;;;4.60;;
42702;SDS011;28341;52.064;4.920;2022-12-16T03:43:50;21.77;;;4.70;;
42702;SDS011;28341;52.064;4.920;2022-12-16T03:45:56;15.40;;;4.37;;
42702;SDS011;28341;52.064;4.920;2022-12-16T03:48:05;13.73;;;4.07;;
42702;SDS011;28341;52.064;4.920;2022-12-16T03:50:13;17.70;;;3.80;;
42702;SDS011;28341;52.064;4.920;2022-12-16T03:52:18;26.10;;;4.67;;
42702;SDS011;28341;52.064;4.920;2022-12-16T03:54:22;14.90;;;3.90;;
42702;SDS011;28341;52.064;4.920;2022-12-16T03:56:27;15.97;;;3.67;;
42702;SDS011;28341;52.064;4.920;2022-12-16T03:58:31;10.83;;;3.40;;
42702;SDS011;28341;52.064;4.920;2022-12-16T04:00:37;15.07;;;4.23;;
42702;SDS011;28341;52.064;4.920;2022-12-16T04:02:42;15.03;;;4.13;;
42702;SDS011;28341;52.064;4.920;2022-12-16T04:04:47;7.97;;;3.73;;
42702;SDS011;28341;52.064;4.920;2022-12-16T04:06:54;8.60;;;3.83;;
42702;SDS011;28341;52.064;4.920;2022-12-16T04:09:11;11.90;;;3.47;;
42702;SDS011;28341;52.064;4.920;2022-12-16T04:11:16;14.07;;;4.33;;
42702;SDS011;28341;52.064;4.920;2022-12-16T04:13:32;14.53;;;4.20;;
42702;SDS011;28341;52.064;4.920;2022-12-16T04:15:49;10.77;;;3.93;;
42702;SDS011;28341;52.064;4.920;2022-12-16T04:18:07;12.33;;;3.50;;
42702;SDS011;28341;52.064;4.920;2022-12-16T04:20:27;15.67;;;4.07;;
42702;SDS011;28341;52.064;4.920;2022-12-16T04:22:49;11.50;;;3.90;;
42702;SDS011;28341;52.064;4.920;2022-12-16T04:25:07;14.40;;;3.80;;
42702;SDS011;28341;52.064;4.920;2022-12-16T04:27:14;15.57;;;3.60;;
42702;SDS011;28341;52.064;4.920;2022-12-16T04:29:28;8.70;;;3.53;;
42702;SDS011;28341;52.064;4.920;2022-12-16T04:31:33;11.60;;;4.23;;
42702;SDS011;28341;52.064;4.920;2022-12-16T04:33:38;11.60;;;4.23;;
42702;SDS011;28341;52.064;4.920;2022-12-16T04:35:55;20.97;;;4.20;;
42702;SDS011;28341;52.064;4.920;2022-12-16T04:38:14;11.63;;;3.83;;
42702;SDS011;28341;52.064;4.920;2022-12-16T04:40:31;12.63;;;4.40;;
42702;SDS011;28341;52.064;4.920;2022-12-16T04:42:47;15.03;;;4.50;;
42702;SDS011;28341;52.064;4.920;2022-12-16T04:45:04;11.77;;;5.10;;
42702;SDS011;28341;52.064;4.920;2022-12-16T04:47:25;15.87;;;4.47;;
42702;SDS011;28341;52.064;4.920;2022-12-16T04:49:42;10.07;;;3.77;;
42702;SDS011;28341;52.064;4.920;2022-12-16T04:51:59;9.13;;;3.87;;
42702;SDS011;28341;52.064;4.920;2022-12-16T04:54:18;9.40;;;4.20;;
42702;SDS011;28341;52.064;4.920;2022-12-16T04:56:41;7.80;;;4.00;;
42702;SDS011;28341;52.064;4.920;2022-12-16T04:58:58;7.70;;;4.60;;
42702;SDS011;28341;52.064;4.920;2022-12-16T05:01:14;16.47;;;4.70;;
42702;SDS011;28341;52.064;4.920;2022-12-16T05:03:31;8.80;;;3.73;;
42702;SDS011;28341;52.064;4.920;2022-12-16T05:05:48;9.90;;;4.33;;
42702;SDS011;28341;52.064;4.920;2022-12-16T05:08:05;15.23;;;5.03;;
42702;SDS011;28341;52.064;4.920;2022-12-16T05:10:24;15.03;;;5.57;;
42702;SDS011;28341;52.064;4.920;2022-12-16T05:12:41;10.63;;;4.57;;
42702;SDS011;28341;52.064;4.920;2022-12-16T05:14:58;14.73;;;4.70;;
42702;SDS011;28341;52.064;4.920;2022-12-16T05:17:15;12.50;;;4.70;;
42702;SDS011;28341;52.064;4.920;2022-12-16T05:19:32;9.30;;;4.43;;
42702;SDS011;28341;52.064;4.920;2022-12-16T05:21:48;9.23;;;4.87;;
42702;SDS011;28341;52.064;4.920;2022-12-16T05:24:05;13.47;;;4.53;;
42702;SDS011;28341;52.064;4.920;2022-12-16T05:26:25;12.43;;;5.10;;
42702;SDS011;28341;52.064;4.920;2022-12-16T05:28:42;10.43;;;4.63;;
42702;SDS011;28341;52.064;4.920;2022-12-16T05:30:59;7.97;;;5.10;;
42702;SDS011;28341;52.064;4.920;2022-12-16T05:33:15;10.10;;;4.50;;
42702;SDS011;28341;52.064;4.920;2022-12-16T05:35:32;11.93;;;4.30;;
42702;SDS011;28341;52.064;4.920;2022-12-16T05:37:49;8.37;;;4.63;;
42702;SDS011;28341;52.064;4.920;2022-12-16T05:40:06;14.67;;;4.93;;
42702;SDS011;28341;52.064;4.920;2022-12-16T05:42:28;10.17;;;5.37;;
42702;SDS011;28341;52.064;4.920;2022-12-16T05:44:45;17.67;;;5.70;;
42702;SDS011;28341;52.064;4.920;2022-12-16T05:47:02;16.13;;;5.10;;
42702;SDS011;28341;52.064;4.920;2022-12-16T05:49:18;20.70;;;6.13;;
42702;SDS011;28341;52.064;4.920;2022-12-16T05:51:35;17.70;;;5.83;;
42702;SDS011;28341;52.064;4.920;2022-12-16T05:53:52;21.00;;;5.93;;
42702;SDS011;28341;52.064;4.920;2022-12-16T05:56:09;18.90;;;6.30;;
42702;SDS011;28341;52.064;4.920;2022-12-16T05:58:28;16.80;;;6.40;;
42702;SDS011;28341;52.064;4.920;2022-12-16T06:00:45;16.83;;;5.87;;
42702;SDS011;28341;52.064;4.920;2022-12-16T06:03:02;17.40;;;6.73;;
42702;SDS011;28341;52.064;4.920;2022-12-16T06:05:19;14.30;;;6.00;;
42702;SDS011;28341;52.064;4.920;2022-12-16T06:07:36;12.17;;;6.50;;
42702;SDS011;28341;52.064;4.920;2022-12-16T06:09:52;16.17;;;6.70;;
42702;SDS011;28341;52.064;4.920;2022-12-16T06:12:09;16.63;;;6.00;;
42702;SDS011;28341;52.064;4.920;2022-12-16T06:14:29;18.07;;;6.13;;
42702;SDS011;28341;52.064;4.920;2022-12-16T06:16:45;14.03;;;6.23;;
42702;SDS011;28341;52.064;4.920;2022-12-16T06:19:02;12.33;;;5.50;;
42702;SDS011;28341;52.064;4.920;2022-12-16T06:21:19;14.87;;;6.70;;
42702;SDS011;28341;52.064;4.920;2022-12-16T06:23:37;16.37;;;5.90;;
42702;SDS011;28341;52.064;4.920;2022-12-16T06:25:54;14.87;;;5.47;;
42702;SDS011;28341;52.064;4.920;2022-12-16T06:28:10;14.20;;;5.73;;
42702;SDS011;28341;52.064;4.920;2022-12-16T06:30:30;14.67;;;5.90;;
42702;SDS011;28341;52.064;4.920;2022-12-16T06:32:47;18.80;;;6.83;;
42702;SDS011;28341;52.064;4.920;2022-12-16T06:35:04;12.60;;;5.90;;
42702;SDS011;28341;52.064;4.920;2022-12-16T06:37:21;11.67;;;6.63;;
42702;SDS011;28341;52.064;4.920;2022-12-16T06:39:38;12.57;;;6.00;;
42702;SDS011;28341;52.064;4.920;2022-12-16T06:41:55;12.27;;;6.47;;
42702;SDS011;28341;52.064;4.920;2022-12-16T06:44:12;13.20;;;5.87;;
42702;SDS011;28341;52.064;4.920;2022-12-16T06:46:31;19.33;;;6.57;;
42702;SDS011;28341;52.064;4.920;2022-12-16T06:48:48;20.43;;;6.83;;
42702;SDS011;28341;52.064;4.920;2022-12-16T06:51:05;9.33;;;5.67;;
42702;SDS011;28341;52.064;4.920;2022-12-16T06:53:22;18.10;;;9.10;;
42702;SDS011;28341;52.064;4.920;2022-12-16T06:55:38;106.63;;;63.40;;
42702;SDS011;28341;52.064;4.920;2022-12-16T06:57:56;69.23;;;39.87;;
42702;SDS011;28341;52.064;4.920;2022-12-16T07:00:13;111.13;;;64.63;;
42702;SDS011;28341;52.064;4.920;2022-12-16T07:02:33;110.43;;;63.37;;
42702;SDS011;28341;52.064;4.920;2022-12-16T07:04:50;63.17;;;35.73;;
42702;SDS011;28341;52.064;4.920;2022-12-16T07:07:10;27.50;;;14.60;;
42702;SDS011;28341;52.064;4.920;2022-12-16T07:09:27;22.07;;;11.70;;
42702;SDS011;28341;52.064;4.920;2022-12-16T07:11:43;21.10;;;9.27;;
42702;SDS011;28341;52.064;4.920;2022-12-16T07:14:00;20.77;;;7.67;;
42702;SDS011;28341;52.064;4.920;2022-12-16T07:16:17;15.90;;;7.40;;
42702;SDS011;28341;52.064;4.920;2022-12-16T07:18:37;19.63;;;7.70;;
42702;SDS011;28341;52.064;4.920;2022-12-16T07:20:54;16.47;;;7.90;;
42702;SDS011;28341;52.064;4.920;2022-12-16T07:23:10;19.20;;;7.90;;
42702;SDS011;28341;52.064;4.920;2022-12-16T07:25:27;14.17;;;7.07;;
42702;SDS011;28341;52.064;4.920;2022-12-16T07:27:45;17.57;;;7.67;;
42702;SDS011;28341;52.064;4.920;2022-12-16T07:30:02;16.53;;;8.07;;
42702;SDS011;28341;52.064;4.920;2022-12-16T07:32:20;127.83;;;76.93;;
42702;SDS011;28341;52.064;4.920;2022-12-16T07:34:39;114.87;;;72.07;;
42702;SDS011;28341;52.064;4.920;2022-12-16T07:36:56;160.27;;;99.13;;
42702;SDS011;28341;52.064;4.920;2022-12-16T07:39:13;149.27;;;84.53;;
42702;SDS011;28341;52.064;4.920;2022-12-16T07:41:30;44.23;;;23.60;;
42702;SDS011;28341;52.064;4.920;2022-12-16T07:43:46;20.87;;;11.17;;
42702;SDS011;28341;52.064;4.920;2022-12-16T07:46:03;16.57;;;8.57;;
42702;SDS011;28341;52.064;4.920;2022-12-16T07:48:20;19.23;;;8.67;;
42702;SDS011;28341;52.064;4.920;2022-12-16T07:50:39;21.30;;;9.63;;
42702;SDS011;28341;52.064;4.920;2022-12-16T07:52:57;22.73;;;9.00;;
42702;SDS011;28341;52.064;4.920;2022-12-16T07:55:14;29.23;;;9.23;;
42702;SDS011;28341;52.064;4.920;2022-12-16T07:57:31;23.47;;;9.60;;
42702;SDS011;28341;52.064;4.920;2022-12-16T07:59:48;26.40;;;9.70;;
42702;SDS011;28341;52.064;4.920;2022-12-16T08:02:12;20.08;;;9.15;;
42702;SDS011;28341;52.064;4.920;2022-12-16T08:04:29;24.60;;;10.80;;
42702;SDS011;28341;52.064;4.920;2022-12-16T08:06:48;19.63;;;9.37;;
42702;SDS011;28341;52.064;4.920;2022-12-16T08:09:04;24.00;;;10.40;;
42702;SDS011;28341;52.064;4.920;2022-12-16T08:11:21;21.73;;;10.07;;
42702;SDS011;28341;52.064;4.920;2022-12-16T08:13:38;17.63;;;9.40;;
42702;SDS011;28341;52.064;4.920;2022-12-16T08:15:54;26.37;;;9.40;;
42702;SDS011;28341;52.064;4.920;2022-12-16T08:18:11;26.83;;;9.17;;
42702;SDS011;28341;52.064;4.920;2022-12-16T08:20:28;22.30;;;9.80;;
42702;SDS011;28341;52.064;4.920;2022-12-16T08:22:48;19.13;;;9.13;;
42702;SDS011;28341;52.064;4.920;2022-12-16T08:25:05;20.60;;;9.57;;
42702;SDS011;28341;52.064;4.920;2022-12-16T08:27:22;17.20;;;8.63;;
42702;SDS011;28341;52.064;4.920;2022-12-16T08:29:38;16.37;;;8.23;;
42702;SDS011;28341;52.064;4.920;2022-12-16T08:31:55;16.50;;;8.57;;
42702;SDS011;28341;52.064;4.920;2022-12-16T08:34:12;16.97;;;7.90;;
42702;SDS011;28341;52.064;4.920;2022-12-16T08:36:28;19.40;;;8.50;;
42702;SDS011;28341;52.064;4.920;2022-12-16T08:38:48;16.57;;;8.03;;
42702;SDS011;28341;52.064;4.920;2022-12-16T08:41:13;21.03;;;8.20;;
42702;SDS011;28341;52.064;4.920;2022-12-16T08:43:30;22.23;;;8.93;;
42702;SDS011;28341;52.064;4.920;2022-12-16T08:45:48;28.13;;;9.40;;
42702;SDS011;28341;52.064;4.920;2022-12-16T08:48:08;18.57;;;8.83;;
42702;SDS011;28341;52.064;4.920;2022-12-16T08:50:25;19.03;;;9.53;;
42702;SDS011;28341;52.064;4.920;2022-12-16T08:52:41;18.60;;;8.93;;
42702;SDS011;28341;52.064;4.920;2022-12-16T08:55:01;16.67;;;8.47;;
42702;SDS011;28341;52.064;4.920;2022-12-16T08:57:17;21.83;;;8.73;;
42702;SDS011;28341;52.064;4.920;2022-12-16T08:59:34;22.40;;;8.53;;
42702;SDS011;28341;52.064;4.920;2022-12-16T09:01:50;19.57;;;8.80;;
42702;SDS011;28341;52.064;4.920;2022-12-16T09:04:07;20.43;;;8.60;;
42702;SDS011;28341;52.064;4.920;2022-12-16T09:06:23;18.37;;;9.23;;
42702;SDS011;28341;52.064;4.920;2022-12-16T09:08:40;20.80;;;8.37;;
42702;SDS011;28341;52.064;4.920;2022-12-16T09:11:01;22.67;;;8.47;;
42702;SDS011;28341;52.064;4.920;2022-12-16T09:13:17;22.17;;;8.57;;
42702;SDS011;28341;52.064;4.920;2022-12-16T09:15:34;23.30;;;10.00;;
42702;SDS011;28341;52.064;4.920;2022-12-16T09:17:52;19.13;;;8.90;;
42702;SDS011;28341;52.064;4.920;2022-12-16T09:20:09;17.37;;;9.13;;
42702;SDS011;28341;52.064;4.920;2022-12-16T09:22:26;20.40;;;9.40;;
42702;SDS011;28341;52.064;4.920;2022-12-16T09:24:43;31.03;;;9.87;;
42702;SDS011;28341;52.064;4.920;2022-12-16T09:27:02;22.27;;;9.13;;
42702;SDS011;28341;52.064;4.920;2022-12-16T09:29:19;20.80;;;8.83;;
42702;SDS011;28341;52.064;4.920;2022-12-16T09:31:35;24.53;;;9.77;;
42702;SDS011;28341;52.064;4.920;2022-12-16T09:33:52;24.00;;;9.40;;
42702;SDS011;28341;52.064;4.920;2022-12-16T09:36:09;21.63;;;9.60;;
42702;SDS011;28341;52.064;4.920;2022-12-16T09:38:26;22.00;;;9.50;;
42702;SDS011;28341;52.064;4.920;2022-12-16T09:40:42;21.60;;;9.80;;
42702;SDS011;28341;52.064;4.920;2022-12-16T09:43:03;21.97;;;10.67;;
42702;SDS011;28341;52.064;4.920;2022-12-16T09:45:31;21.90;;;9.30;;
42702;SDS011;28341;52.064;4.920;2022-12-16T09:47:54;23.67;;;10.30;;
42702;SDS011;28341;52.064;4.920;2022-12-16T09:50:19;20.40;;;10.83;;
42702;SDS011;28341;52.064;4.920;2022-12-16T09:52:40;22.43;;;11.50;;
42702;SDS011;28341;52.064;4.920;2022-12-16T09:54:59;23.03;;;10.87;;
42702;SDS011;28341;52.064;4.920;2022-12-16T09:57:17;26.33;;;11.70;;
42702;SDS011;28341;52.064;4.920;2022-12-16T09:59:38;29.27;;;11.53;;
42702;SDS011;28341;52.064;4.920;2022-12-16T10:01:57;25.23;;;11.30;;
42702;SDS011;28341;52.064;4.920;2022-12-16T10:04:15;33.27;;;11.83;;
42702;SDS011;28341;52.064;4.920;2022-12-16T10:06:34;25.93;;;11.00;;
42702;SDS011;28341;52.064;4.920;2022-12-16T10:08:58;24.73;;;12.43;;
42702;SDS011;28341;52.064;4.920;2022-12-16T10:11:22;25.77;;;12.70;;
42702;SDS011;28341;52.064;4.920;2022-12-16T10:13:45;27.83;;;12.20;;
42702;SDS011;28341;52.064;4.920;2022-12-16T10:16:10;27.17;;;11.70;;
42702;SDS011;28341;52.064;4.920;2022-12-16T10:18:37;24.77;;;12.37;;
42702;SDS011;28341;52.064;4.920;2022-12-16T10:21:01;27.37;;;12.70;;
42702;SDS011;28341;52.064;4.920;2022-12-16T10:23:20;23.97;;;12.03;;
42702;SDS011;28341;52.064;4.920;2022-12-16T10:25:42;25.95;;;12.63;;
42702;SDS011;28341;52.064;4.920;2022-12-16T10:28:03;28.43;;;12.23;;
42702;SDS011;28341;52.064;4.920;2022-12-16T10:30:29;33.73;;;12.27;;
42702;SDS011;28341;52.064;4.920;2022-12-16T10:32:50;23.10;;;11.87;;
42702;SDS011;28341;52.064;4.920;2022-12-16T10:35:13;21.73;;;10.90;;
42702;SDS011;28341;52.064;4.920;2022-12-16T10:37:37;21.90;;;10.93;;
42702;SDS011;28341;52.064;4.920;2022-12-16T10:39:54;22.80;;;11.27;;
42702;SDS011;28341;52.064;4.920;2022-12-16T10:42:16;21.13;;;12.13;;
42702;SDS011;28341;52.064;4.920;2022-12-16T10:44:36;20.67;;;10.73;;
42702;SDS011;28341;52.064;4.920;2022-12-16T10:47:05;16.17;;;10.30;;
42702;SDS011;28341;52.064;4.920;2022-12-16T10:49:24;26.97;;;11.03;;
42702;SDS011;28341;52.064;4.920;2022-12-16T10:51:41;29.07;;;10.70;;
42702;SDS011;28341;52.064;4.920;2022-12-16T10:53:59;17.77;;;9.30;;
42702;SDS011;28341;52.064;4.920;2022-12-16T10:56:36;22.60;;;9.10;;
42702;SDS011;28341;52.064;4.920;2022-12-16T10:59:04;27.87;;;10.03;;
42702;SDS011;28341;52.064;4.920;2022-12-16T11:01:23;21.00;;;9.53;;
42702;SDS011;28341;52.064;4.920;2022-12-16T11:03:42;25.03;;;9.37;;
42702;SDS011;28341;52.064;4.920;2022-12-16T11:06:01;21.60;;;9.40;;
42702;SDS011;28341;52.064;4.920;2022-12-16T11:08:23;18.43;;;8.30;;
42702;SDS011;28341;52.064;4.920;2022-12-16T11:10:42;17.98;;;8.57;;
42702;SDS011;28341;52.064;4.920;2022-12-16T11:13:03;24.80;;;9.23;;
42702;SDS011;28341;52.064;4.920;2022-12-16T11:15:29;16.43;;;8.57;;
42702;SDS011;28341;52.064;4.920;2022-12-16T11:18:00;18.40;;;8.35;;
42702;SDS011;28341;52.064;4.920;2022-12-16T11:20:20;16.23;;;7.93;;
42702;SDS011;28341;52.064;4.920;2022-12-16T11:22:42;17.30;;;9.10;;
42702;SDS011;28341;52.064;4.920;2022-12-16T11:25:05;16.17;;;8.45;;
42702;SDS011;28341;52.064;4.920;2022-12-16T11:27:28;17.90;;;8.85;;
42702;SDS011;28341;52.064;4.920;2022-12-16T11:29:49;19.20;;;8.63;;
42702;SDS011;28341;52.064;4.920;2022-12-16T11:32:10;19.98;;;9.77;;
42702;SDS011;28341;52.064;4.920;2022-12-16T11:34:34;21.52;;;8.93;;
42702;SDS011;28341;52.064;4.920;2022-12-16T11:36:51;23.67;;;8.63;;
42702;SDS011;28341;52.064;4.920;2022-12-16T11:39:12;16.77;;;8.60;;
42702;SDS011;28341;52.064;4.920;2022-12-16T11:41:32;22.00;;;9.97;;
42702;SDS011;28341;52.064;4.920;2022-12-16T11:43:52;44.83;;;11.60;;
42702;SDS011;28341;52.064;4.920;2022-12-16T11:46:10;19.98;;;8.45;;
42702;SDS011;28341;52.064;4.920;2022-12-16T11:48:31;16.65;;;8.13;;
42702;SDS011;28341;52.064;4.920;2022-12-16T11:50:55;18.48;;;9.02;;
42702;SDS011;28341;52.064;4.920;2022-12-16T11:53:18;15.00;;;8.77;;
42702;SDS011;28341;52.064;4.920;2022-12-16T11:55:49;21.48;;;9.32;;
42702;SDS011;28341;52.064;4.920;2022-12-16T11:58:11;14.50;;;8.88;;
42702;SDS011;28341;52.064;4.920;2022-12-16T12:00:34;15.47;;;8.83;;
42702;SDS011;28341;52.064;4.920;2022-12-16T12:02:54;20.20;;;9.20;;
42702;SDS011;28341;52.064;4.920;2022-12-16T12:05:15;21.40;;;9.60;;
42702;SDS011;28341;52.064;4.920;2022-12-16T12:07:35;18.98;;;9.02;;
42702;SDS011;28341;52.064;4.920;2022-12-16T12:09:58;19.42;;;8.73;;
42702;SDS011;28341;52.064;4.920;2022-12-16T12:12:26;18.95;;;11.02;;
42702;SDS011;28341;52.064;4.920;2022-12-16T12:14:49;20.42;;;11.35;;
42702;SDS011;28341;52.064;4.920;2022-12-16T12:17:15;19.55;;;11.20;;
42702;SDS011;28341;52.064;4.920;2022-12-16T12:19:45;20.27;;;12.45;;
42702;SDS011;28341;52.064;4.920;2022-12-16T12:22:14;20.33;;;11.40;;
42702;SDS011;28341;52.064;4.920;2022-12-16T12:24:38;18.80;;;11.85;;
42702;SDS011;28341;52.064;4.920;2022-12-16T12:27:01;21.60;;;13.52;;
42702;SDS011;28341;52.064;4.920;2022-12-16T12:29:31;27.80;;;15.50;;
42702;SDS011;28341;52.064;4.920;2022-12-16T12:32:09;24.08;;;15.73;;
42702;SDS011;28341;52.064;4.920;2022-12-16T12:34:33;28.40;;;16.10;;
42702;SDS011;28341;52.064;4.920;2022-12-16T12:36:56;23.60;;;15.57;;
42702;SDS011;28341;52.064;4.920;2022-12-16T12:39:19;29.58;;;16.73;;
42702;SDS011;28341;52.064;4.920;2022-12-16T12:41:46;25.63;;;16.08;;
42702;SDS011;28341;52.064;4.920;2022-12-16T12:44:16;24.38;;;15.98;;
42702;SDS011;28341;52.064;4.920;2022-12-16T12:46:53;25.98;;;17.23;;
42702;SDS011;28341;52.064;4.920;2022-12-16T12:49:15;26.77;;;16.88;;
42702;SDS011;28341;52.064;4.920;2022-12-16T12:51:39;25.48;;;17.05;;
42702;SDS011;28341;52.064;4.920;2022-12-16T12:54:05;27.33;;;17.13;;
42702;SDS011;28341;52.064;4.920;2022-12-16T12:56:30;23.13;;;17.10;;
42702;SDS011;28341;52.064;4.920;2022-12-16T12:59:00;26.52;;;17.27;;
42702;SDS011;28341;52.064;4.920;2022-12-16T13:01:19;29.80;;;16.85;;
42702;SDS011;28341;52.064;4.920;2022-12-16T13:03:41;27.13;;;18.10;;
42702;SDS011;28341;52.064;4.920;2022-12-16T13:08:31;28.80;;;17.35;;
42702;SDS011;28341;52.064;4.920;2022-12-16T13:11:10;29.60;;;17.50;;
42702;SDS011;28341;52.064;4.920;2022-12-16T13:13:28;31.55;;;17.70;;
42702;SDS011;28341;52.064;4.920;2022-12-16T13:15:49;26.75;;;16.92;;
42702;SDS011;28341;52.064;4.920;2022-12-16T13:18:19;24.27;;;17.60;;
42702;SDS011;28341;52.064;4.920;2022-12-16T13:20:44;26.23;;;17.67;;
42702;SDS011;28341;52.064;4.920;2022-12-16T13:23:03;25.02;;;17.33;;
42702;SDS011;28341;52.064;4.920;2022-12-16T13:25:55;27.67;;;17.45;;
42702;SDS011;28341;52.064;4.920;2022-12-16T13:28:20;25.33;;;16.95;;
42702;SDS011;28341;52.064;4.920;2022-12-16T13:30:39;24.27;;;16.35;;
42702;SDS011;28341;52.064;4.920;2022-12-16T13:33:04;23.57;;;16.90;;
42702;SDS011;28341;52.064;4.920;2022-12-16T13:35:22;24.33;;;17.20;;
42702;SDS011;28341;52.064;4.920;2022-12-16T13:37:54;25.00;;;17.15;;
42702;SDS011;28341;52.064;4.920;2022-12-16T13:40:22;28.67;;;16.98;;